Time;durP1;ratioP1;P1;durP2;ratioP2;P2;SDS_P1;SDS_P2;PMS_P1;PMS_P2;Temp;Humidity;BMP_temperature;BMP_pressure;BME280_temperature;BME280_humidity;BME280_pressure;Samples;Min_cycle;Max_cycle;Signal;HPM_P1;HPM_P2
2021/03/01 00:02:05;;;;;;;14.40;8.65;;;;;;;8.00;100.00;102204.72;4919641;29;20032;-74
2021/03/01 00:04:50;;;;;;;13.27;9.00;;;;;;;8.12;100.00;102197.09;4905990;29;20496;-75
2021/03/01 00:07:37;;;;;;;12.43;8.73;;;;;;;8.00;100.00;102192.53;4907431;29;20056;-74
2021/03/01 00:10:24;;;;;;;11.82;8.73;;;;;;;7.95;100.00;102199.41;4920289;29;20028;-75
2021/03/01 00:13:10;;;;;;;10.38;7.60;;;;;;;7.96;100.00;102198.56;4920851;29;20052;-74
2021/03/01 00:15:55;;;;;;;11.63;8.73;;;;;;;7.91;100.00;102194.13;4920727;29;20032;-74
2021/03/01 00:18:41;;;;;;;13.43;8.60;;;;;;;7.98;100.00;102185.53;4920091;29;20039;-74
2021/03/01 00:21:27;;;;;;;13.15;8.98;;;;;;;7.37;100.00;102172.28;4919542;29;20139;-74
2021/03/01 00:24:13;;;;;;;13.35;9.40;;;;;;;7.61;100.00;102184.06;4919955;29;20035;-74
2021/03/01 00:26:58;;;;;;;13.13;9.05;;;;;;;7.98;100.00;102188.16;4919737;29;20032;-73
2021/03/01 00:29:44;;;;;;;13.63;9.35;;;;;;;7.90;100.00;102184.53;4919459;29;20043;-74
2021/03/01 00:32:30;;;;;;;14.65;9.40;;;;;;;7.96;100.00;102177.69;4919644;29;20031;-74
2021/03/01 00:35:16;;;;;;;15.13;9.80;;;;;;;7.57;100.00;102166.59;4919531;29;20028;-74
2021/03/01 00:38:01;;;;;;;13.63;9.35;;;;;;;7.60;100.00;102161.41;4919258;29;20044;-74
2021/03/01 00:40:47;;;;;;;13.40;9.40;;;;;;;7.95;100.00;102160.28;4919453;29;20342;-74
2021/03/01 00:43:35;;;;;;;14.45;9.93;;;;;;;7.63;100.00;102147.56;4918926;29;20425;-73
2021/03/01 00:46:20;;;;;;;14.40;9.73;;;;;;;7.54;100.00;102157.81;4905542;29;20366;-73
2021/03/01 00:49:06;;;;;;;14.52;10.02;;;;;;;7.69;100.00;102147.66;4918909;29;20027;-74
2021/03/01 00:51:52;;;;;;;14.20;10.02;;;;;;;7.86;100.00;102149.69;4905766;29;20103;-74
2021/03/01 00:54:38;;;;;;;17.38;9.77;;;;;;;7.74;100.00;102151.22;4918745;29;20094;-74
2021/03/01 00:57:24;;;;;;;13.63;9.50;;;;;;;7.50;100.00;102158.63;4919147;29;20024;-74
2021/03/01 01:00:19;;;;;;;14.55;9.70;;;;;;;7.62;100.00;102158.84;4905861;29;20122;-74
2021/03/01 01:03:05;;;;;;;12.88;9.13;;;;;;;7.29;100.00;102160.84;4918986;29;20458;-74
2021/03/01 01:05:51;;;;;;;15.43;10.68;;;;;;;7.27;100.00;102154.72;4904865;29;20028;-74
2021/03/01 01:08:36;;;;;;;12.85;8.90;;;;;;;7.12;100.00;102155.28;4918628;29;20064;-74
2021/03/01 01:11:22;;;;;;;14.02;9.75;;;;;;;6.81;100.00;102168.56;4918987;29;20119;-75
2021/03/01 01:14:08;;;;;;;14.05;9.48;;;;;;;6.93;100.00;102167.94;4918867;29;20024;-74
2021/03/01 01:16:54;;;;;;;14.57;9.88;;;;;;;6.93;100.00;102166.22;4918716;29;20021;-74
2021/03/01 01:19:40;;;;;;;14.45;10.20;;;;;;;6.92;100.00;102155.75;4919079;29;20028;-74
2021/03/01 01:22:25;;;;;;;15.60;10.18;;;;;;;6.66;100.00;102157.84;4918644;29;20036;-74
2021/03/01 01:25:13;;;;;;;15.27;10.02;;;;;;;6.90;100.00;102155.72;4918293;29;20398;-74
2021/03/01 01:27:59;;;;;;;17.33;10.77;;;;;;;6.37;100.00;102158.94;4918033;29;20067;-73
2021/03/01 01:30:44;;;;;;;16.05;10.82;;;;;;;6.81;100.00;102158.16;4918089;29;20521;-73
2021/03/01 01:33:30;;;;;;;20.05;12.23;;;;;;;6.53;100.00;102160.13;4917969;29;20497;-74
2021/03/01 01:36:16;;;;;;;18.08;11.18;;;;;;;6.50;100.00;102149.66;4918080;29;20092;-74
2021/03/01 01:39:03;;;;;;;18.35;12.00;;;;;;;6.45;100.00;102156.47;4916862;29;20032;-74
2021/03/01 01:41:48;;;;;;;19.17;11.73;;;;;;;6.46;100.00;102151.31;4904519;29;20409;-74
2021/03/01 01:44:34;;;;;;;19.30;11.63;;;;;;;6.55;100.00;102146.28;4918220;29;20024;-73
2021/03/01 01:47:21;;;;;;;21.40;12.50;;;;;;;6.40;100.00;102156.41;4917890;29;20043;-73
2021/03/01 01:50:08;;;;;;;18.65;12.10;;;;;;;6.78;100.00;102155.47;4918109;29;20036;-74
2021/03/01 01:52:55;;;;;;;21.05;12.82;;;;;;;6.59;100.00;102153.31;4917502;29;20024;-75
2021/03/01 01:55:41;;;;;;;18.33;12.88;;;;;;;6.92;100.00;102159.25;4918446;29;20031;-74
2021/03/01 01:58:27;;;;;;;19.83;13.07;;;;;;;6.76;100.00;102159.78;4917720;29;20552;-74
2021/03/01 02:01:13;;;;;;;19.75;13.00;;;;;;;6.40;100.00;102159.00;4904227;29;20119;-74
2021/03/01 02:04:21;;;;;;;19.58;12.77;;;;;;;6.04;100.00;102154.66;4918397;29;20083;-73
2021/03/01 02:07:27;;;;;;;19.65;12.73;;;;;;;6.29;100.00;102160.47;4917520;29;20044;-73
2021/03/01 02:10:26;;;;;;;22.02;13.38;;;;;;;6.14;100.00;102152.31;4917527;29;20334;-74
2021/03/01 02:13:27;;;;;;;22.15;13.93;;;;;;;5.95;100.00;102167.47;4918741;29;20025;-74
2021/03/01 02:16:23;;;;;;;20.20;13.02;;;;;;;5.84;100.00;102168.91;4922621;29;20047;-73
2021/03/01 02:19:10;;;;;;;20.70;13.13;;;;;;;5.83;100.00;102161.97;4919666;29;20047;-74
2021/03/01 02:21:56;;;;;;;25.05;13.85;;;;;;;5.96;100.00;102158.81;4904406;29;20111;-75
2021/03/01 02:24:48;;;;;;;22.95;13.70;;;;;;;6.09;100.00;102158.25;4917929;29;20059;-75
2021/03/01 02:27:46;;;;;;;21.73;13.25;;;;;;;5.78;100.00;102164.41;4916644;29;20088;-74
2021/03/01 02:30:41;;;;;;;24.55;13.18;;;;;;;5.90;100.00;102162.13;4904431;29;20028;-74
2021/03/01 02:33:38;;;;;;;20.40;13.30;;;;;;;6.10;100.00;102157.44;4917130;29;20444;-74
2021/03/01 02:36:31;;;;;;;22.17;13.77;;;;;;;6.18;100.00;102154.13;4917864;29;20043;-74
2021/03/01 02:39:20;;;;;;;19.40;13.15;;;;;;;5.95;100.00;102157.06;4917250;29;20063;-73
2021/03/01 02:42:07;;;;;;;21.42;13.35;;;;;;;5.76;100.00;102160.00;4917199;29;20027;-73
2021/03/01 02:44:55;;;;;;;22.27;13.68;;;;;;;5.69;100.00;102164.19;4917118;29;20040;-74
2021/03/01 02:47:42;;;;;;;23.10;13.98;;;;;;;5.73;100.00;102157.31;4904595;29;20036;-74
2021/03/01 02:50:30;;;;;;;20.98;13.70;;;;;;;6.05;100.00;102166.81;4904024;29;20032;-73
2021/03/01 02:53:17;;;;;;;22.02;13.88;;;;;;;6.06;100.00;102166.88;4917064;29;20024;-74
2021/03/01 02:56:04;;;;;;;22.40;14.23;;;;;;;6.05;100.00;102174.63;4917305;29;20024;-73
2021/03/01 02:58:51;;;;;;;23.05;13.85;;;;;;;5.77;100.00;102174.75;4917211;29;20040;-74
2021/03/01 03:01:38;;;;;;;21.95;13.90;;;;;;;6.04;100.00;102172.88;4904031;29;20032;-74
2021/03/01 03:04:25;;;;;;;21.38;13.70;;;;;;;6.15;100.00;102168.81;4904303;29;20056;-74
2021/03/01 03:07:12;;;;;;;21.90;13.95;;;;;;;6.21;100.00;102171.53;4904034;29;20135;-73
2021/03/01 03:10:00;;;;;;;21.13;13.68;;;;;;;5.93;100.00;102171.72;4918400;29;20020;-73
2021/03/01 03:12:47;;;;;;;25.55;14.38;;;;;;;5.96;100.00;102177.00;4920214;29;20036;-74
2021/03/01 03:15:34;;;;;;;24.08;14.82;;;;;;;5.56;100.00;102179.41;4902520;29;20036;-74
2021/03/01 03:18:23;;;;;;;24.83;14.63;;;;;;;5.66;100.00;102186.63;4917139;29;20103;-74
2021/03/01 03:21:09;;;;;;;23.10;14.80;;;;;;;5.92;100.00;102189.09;4917247;29;20039;-73
2021/03/01 03:23:55;;;;;;;24.38;14.68;;;;;;;6.11;100.00;102190.41;4903692;29;20027;-73
2021/03/01 03:26:41;;;;;;;23.60;14.77;;;;;;;5.92;100.00;102181.28;4916717;29;20090;-74
2021/03/01 03:29:28;;;;;;;23.85;14.35;;;;;;;6.21;100.00;102180.25;4916745;29;20039;-74
2021/03/01 03:32:14;;;;;;;24.65;14.20;;;;;;;6.20;100.00;102193.22;4916912;29;20028;-74
2021/03/01 03:35:01;;;;;;;22.83;14.38;;;;;;;5.93;100.00;102197.75;4903384;29;20050;-73
2021/03/01 03:38:08;;;;;;;21.58;13.90;;;;;;;6.18;100.00;102206.19;4918560;29;20042;-73
2021/03/01 03:40:59;;;;;;;21.50;14.15;;;;;;;6.28;100.00;102210.78;4919932;29;20390;-74
2021/03/01 03:43:45;;;;;;;23.95;14.35;;;;;;;6.24;100.00;102210.66;4920153;29;20501;-74
2021/03/01 03:46:32;;;;;;;21.38;14.57;;;;;;;6.23;100.00;102217.56;4920025;29;20032;-74
2021/03/01 03:49:19;;;;;;;24.55;14.65;;;;;;;6.30;100.00;102211.69;4920020;29;20115;-74
2021/03/01 03:52:08;;;;;;;22.00;14.38;;;;;;;6.27;100.00;102216.81;4919917;29;20024;-74
2021/03/01 03:54:56;;;;;;;24.48;13.85;;;;;;;6.66;100.00;102199.50;4919877;29;20111;-74
2021/03/01 03:57:46;;;;;;;20.75;13.30;;;;;;;6.55;100.00;102203.56;4920711;29;20119;-75
2021/03/01 04:00:36;;;;;;;21.58;13.32;;;;;;;6.78;100.00;102191.94;4921968;29;20070;-73
2021/03/01 04:03:24;;;;;;;19.48;13.13;;;;;;;6.94;100.00;102201.84;4921674;29;20036;-74
2021/03/01 04:06:16;;;;;;;21.77;14.38;;;;;;;6.46;100.00;102198.19;4919591;29;20060;-75
2021/03/01 04:09:06;;;;;;;23.40;14.23;;;;;;;6.12;100.00;102203.44;4920870;29;20028;-74
2021/03/01 04:11:52;;;;;;;20.08;13.48;;;;;;;6.06;100.00;102198.09;4907782;29;20118;-73
2021/03/01 04:14:39;;;;;;;26.90;16.15;;;;;;;6.13;100.00;102193.91;4905943;29;20028;-74
2021/03/01 04:17:27;;;;;;;21.00;14.00;;;;;;;6.03;100.00;102198.00;4919532;29;20107;-74
2021/03/01 04:20:18;;;;;;;25.00;15.00;;;;;;;5.88;100.00;102195.06;4919779;29;20078;-74
2021/03/01 04:23:06;;;;;;;24.65;15.30;;;;;;;6.23;100.00;102203.69;4919173;29;20531;-74
2021/03/01 04:25:53;;;;;;;24.85;15.23;;;;;;;5.98;100.00;102204.81;4919417;29;20028;-74
2021/03/01 04:28:40;;;;;;;23.98;15.27;;;;;;;6.31;100.00;102202.16;4906742;29;20058;-74
2021/03/01 04:31:27;;;;;;;23.25;14.10;;;;;;;6.00;100.00;102210.06;4919942;29;20035;-75
2021/03/01 04:34:17;;;;;;;22.92;14.27;;;;;;;5.80;100.00;102214.75;4919837;29;20024;-75
2021/03/01 04:37:02;;;;;;;24.13;14.23;;;;;;;5.97;100.00;102216.06;4919272;29;20506;-74
2021/03/01 04:39:48;;;;;;;21.98;13.75;;;;;;;5.94;100.00;102225.53;4918913;29;20124;-74
2021/03/01 04:42:36;;;;;;;22.80;14.50;;;;;;;6.30;100.00;102226.44;4918871;29;20024;-74
2021/03/01 04:45:23;;;;;;;22.85;13.95;;;;;;;6.47;100.00;102222.50;4906065;29;20028;-73
2021/03/01 04:48:10;;;;;;;24.52;13.55;;;;;;;6.46;100.00;102228.53;4919130;29;20171;-74
2021/03/01 04:50:57;;;;;;;23.13;14.10;;;;;;;6.32;100.00;102229.94;4919199;29;20028;-75
2021/03/01 04:53:43;;;;;;;22.23;14.57;;;;;;;6.44;100.00;102238.94;4918987;29;20032;-75
2021/03/01 04:56:30;;;;;;;21.17;13.57;;;;;;;6.59;100.00;102246.22;4918991;29;20056;-74
2021/03/01 04:59:18;;;;;;;22.17;13.93;;;;;;;6.75;100.00;102251.78;4919012;29;20386;-74
2021/03/01 05:02:04;;;;;;;20.38;13.68;;;;;;;6.37;100.00;102264.75;4918788;29;20369;-74
2021/03/01 05:04:50;;;;;;;23.63;14.88;;;;;;;6.15;100.00;102260.75;4918456;29;20127;-75
2021/03/01 05:07:37;;;;;;;24.58;14.43;;;;;;;6.53;100.00;102259.06;4905696;29;20056;-74
2021/03/01 05:10:23;;;;;;;28.35;14.57;;;;;;;6.35;100.00;102254.31;4905192;29;20040;-74
2021/03/01 05:13:09;;;;;;;20.88;14.15;;;;;;;5.87;100.00;102252.22;4918397;29;20024;-74
2021/03/01 05:15:55;;;;;;;24.55;14.90;;;;;;;6.37;100.00;102255.25;4918132;29;20062;-74
2021/03/01 05:18:40;;;;;;;22.23;13.82;;;;;;;6.41;100.00;102254.47;4904615;29;20034;-74
2021/03/01 05:21:27;;;;;;;22.15;13.63;;;;;;;6.31;100.00;102259.41;4919042;29;20042;-74
2021/03/01 05:24:13;;;;;;;23.63;14.70;;;;;;;5.98;100.00;102246.44;4905682;29;20035;-74
2021/03/01 05:26:59;;;;;;;24.00;14.52;;;;;;;6.31;100.00;102251.63;4905209;29;20162;-74
2021/03/01 05:29:45;;;;;;;23.30;14.32;;;;;;;6.15;100.00;102259.88;4918104;29;20112;-74
2021/03/01 05:32:31;;;;;;;27.45;14.77;;;;;;;6.22;100.00;102261.81;4905346;29;20028;-74
2021/03/01 05:35:17;;;;;;;26.98;15.43;;;;;;;6.29;100.00;102268.91;4904137;29;20103;-74
2021/03/01 05:38:02;;;;;;;21.17;14.55;;;;;;;6.65;100.00;102262.84;4918331;29;20031;-74
2021/03/01 05:40:48;;;;;;;22.55;13.85;;;;;;;6.59;100.00;102270.50;4918518;29;20038;-74
2021/03/01 05:43:35;;;;;;;26.58;15.32;;;;;;;6.81;100.00;102271.88;4917943;29;20032;-74
2021/03/01 05:46:22;;;;;;;26.45;13.93;;;;;;;6.22;100.00;102280.03;4918463;29;20107;-74
2021/03/01 05:49:08;;;;;;;21.80;13.82;;;;;;;6.72;100.00;102288.19;4917609;29;20028;-74
2021/03/01 05:51:58;;;;;;;22.25;14.27;;;;;;;6.69;100.00;102295.03;4917363;29;20059;-74
2021/03/01 05:54:46;;;;;;;24.25;14.57;;;;;;;6.55;100.00;102294.72;4904901;29;20024;-74
2021/03/01 05:57:32;;;;;;;27.33;15.57;;;;;;;6.66;100.00;102307.97;4918133;29;20079;-75
2021/03/01 06:00:18;;;;;;;24.15;14.50;;;;;;;6.62;100.00;102313.97;4917819;29;20115;-74
2021/03/01 06:03:05;;;;;;;20.83;13.57;;;;;;;6.95;100.00;102317.38;4904410;29;20024;-74
2021/03/01 06:05:52;;;;;;;24.38;14.63;;;;;;;6.87;100.00;102338.03;4917631;29;20111;-74
2021/03/01 06:08:38;;;;;;;23.52;14.20;;;;;;;6.64;100.00;102341.84;4917552;29;20048;-75
2021/03/01 06:11:24;;;;;;;22.90;14.52;;;;;;;6.48;100.00;102349.22;4917634;29;20032;-75
2021/03/01 06:14:10;;;;;;;22.75;15.00;;;;;;;6.57;100.00;102352.94;4918357;29;20028;-74
2021/03/01 06:17:09;;;;;;;22.73;14.63;;;;;;;7.01;100.00;102365.28;4917226;29;20457;-74
2021/03/01 06:19:59;;;;;;;25.17;14.65;;;;;;;6.92;100.00;102366.81;4917595;29;20465;-74
2021/03/01 06:22:45;;;;;;;23.52;14.50;;;;;;;6.90;100.00;102377.19;4917239;29;20039;-74
2021/03/01 06:25:31;;;;;;;23.35;13.80;;;;;;;6.51;100.00;102370.13;4917412;29;20192;-73
2021/03/01 06:28:27;;;;;;;23.80;14.85;;;;;;;6.85;100.00;102370.09;4917301;29;20028;-74
2021/03/01 06:31:32;;;;;;;26.65;15.45;;;;;;;6.92;100.00;102374.63;4903360;29;20024;-73
2021/03/01 06:34:31;;;;;;;24.13;14.55;;;;;;;6.59;100.00;102382.47;4917186;29;20472;-74
2021/03/01 06:37:17;;;;;;;22.17;14.60;;;;;;;6.87;100.00;102387.53;4922625;29;20385;-74
2021/03/01 06:40:04;;;;;;;27.67;15.88;;;;;;;7.34;100.00;102392.13;4918690;29;20032;-75
2021/03/01 06:42:49;;;;;;;24.05;15.77;;;;;;;7.30;100.00;102394.59;4917368;29;20036;-75
2021/03/01 06:45:35;;;;;;;25.40;15.90;;;;;;;7.25;100.00;102398.84;4916875;29;20448;-75
2021/03/01 06:48:27;;;;;;;27.08;17.73;;;;;;;7.26;100.00;102398.00;4904506;29;20067;-75
2021/03/01 06:51:13;;;;;;;25.88;17.00;;;;;;;6.92;100.00;102391.16;4917405;29;20032;-74
2021/03/01 06:53:59;;;;;;;27.02;16.77;;;;;;;7.23;100.00;102398.81;4916880;29;20430;-74
2021/03/01 06:56:45;;;;;;;28.38;17.95;;;;;;;6.70;100.00;102388.84;4904126;29;20036;-73
2021/03/01 06:59:31;;;;;;;31.45;17.88;;;;;;;7.21;100.00;102392.69;4904271;29;20516;-74
2021/03/01 07:02:38;;;;;;;30.55;19.05;;;;;;;7.37;100.00;102393.91;4903662;29;20047;-75
2021/03/01 07:05:24;;;;;;;36.80;18.70;;;;;;;7.35;100.00;102386.03;4903953;29;20107;-74
2021/03/01 07:08:11;;;;;;;29.42;18.42;;;;;;;7.56;100.00;102383.91;4898301;29;20052;-75
2021/03/01 07:10:58;;;;;;;33.58;18.95;;;;;;;7.32;100.00;102390.31;4898364;29;20024;-75
2021/03/01 07:13:43;;;;;;;31.13;17.83;;;;;;;7.74;100.00;102388.63;4901506;29;20115;-74
2021/03/01 07:16:36;;;;;;;34.80;19.50;;;;;;;7.40;100.00;102383.56;4902161;29;20079;-73
2021/03/01 07:19:23;;;;;;;29.85;19.77;;;;;;;7.69;100.00;102395.47;4902012;29;20028;-75
2021/03/01 07:22:10;;;;;;;33.70;21.25;;;;;;;7.20;100.00;102392.66;4901837;29;20032;-75
2021/03/01 07:24:56;;;;;;;31.70;20.25;;;;;;;7.55;100.00;102391.72;4902040;29;20033;-76
2021/03/01 07:27:42;;;;;;;34.30;20.95;;;;;;;7.08;100.00;102389.78;4901465;29;20064;-74
2021/03/01 07:30:29;;;;;;;34.17;21.52;;;;;;;7.31;100.00;102401.59;4902120;29;20040;-73
2021/03/01 07:33:16;;;;;;;39.28;24.35;;;;;;;7.73;100.00;102395.59;4901726;29;20374;-75
2021/03/01 07:36:03;;;;;;;45.63;27.42;;;;;;;8.00;100.00;102400.47;4901788;29;20029;-75
2021/03/01 07:38:49;;;;;;;50.97;30.52;;;;;;;7.90;100.00;102395.91;4901643;29;20041;-74
2021/03/01 07:41:36;;;;;;;54.53;34.20;;;;;;;6.89;100.00;102396.28;4901214;29;20044;-75
2021/03/01 07:44:25;;;;;;;52.55;32.88;;;;;;;6.95;100.00;102393.81;4902152;29;20032;-74
2021/03/01 07:47:11;;;;;;;56.97;34.83;;;;;;;7.08;100.00;102387.16;4901191;29;20043;-75
2021/03/01 07:49:57;;;;;;;61.00;37.80;;;;;;;7.29;100.00;102388.53;4904587;29;20071;-74
2021/03/01 07:52:43;;;;;;;62.45;38.88;;;;;;;7.77;100.00;102380.88;4906892;29;20059;-73
2021/03/01 07:55:29;;;;;;;65.38;40.15;;;;;;;7.01;100.00;102386.16;4903749;29;20347;-74
2021/03/01 07:58:15;;;;;;;67.25;41.45;;;;;;;7.27;100.00;102386.75;4902195;29;20024;-75
2021/03/01 08:01:14;;;;;;;69.03;42.38;;;;;;;6.78;100.00;102386.41;4903782;29;20386;-74
2021/03/01 08:04:00;;;;;;;69.35;41.78;;;;;;;7.13;100.00;102382.94;4903388;29;20108;-75
2021/03/01 08:06:58;;;;;;;64.47;39.17;;;;;;;7.21;100.00;102383.97;4901160;29;20147;-75
2021/03/01 08:09:53;;;;;;;74.88;44.10;;;;;;;6.90;100.00;102386.72;4901168;29;20037;-75
2021/03/01 08:12:39;;;;;;;71.75;45.45;;;;;;;6.90;100.00;102381.50;4901329;29;20036;-74
2021/03/01 08:15:27;;;;;;;78.15;48.25;;;;;;;6.82;100.00;102377.84;4900930;29;20384;-74
2021/03/01 08:18:13;;;;;;;102.90;67.07;;;;;;;7.08;100.00;102380.19;4901431;29;20040;-73
2021/03/01 08:20:59;;;;;;;92.47;59.85;;;;;;;7.20;100.00;102377.88;4902135;29;20577;-74
2021/03/01 08:23:47;;;;;;;91.97;58.38;;;;;;;7.18;100.00;102370.88;4900468;29;20095;-74
2021/03/01 08:26:34;;;;;;;79.93;48.28;;;;;;;7.24;100.00;102374.50;4901177;29;20039;-75
2021/03/01 08:29:20;;;;;;;75.53;46.05;;;;;;;7.72;100.00;102380.75;4900653;29;20423;-75
2021/03/01 08:32:12;;;;;;;65.70;38.17;;;;;;;7.25;100.00;102380.59;4900804;29;20103;-75
2021/03/01 08:35:24;;;;;;;60.72;36.38;;;;;;;7.42;100.00;102390.56;4900570;29;20483;-75
2021/03/01 08:38:11;;;;;;;47.30;27.77;;;;;;;7.74;100.00;102371.25;4900383;29;20072;-75
2021/03/01 08:40:57;;;;;;;47.08;29.23;;;;;;;7.54;100.00;102369.97;4899070;29;20059;-75
2021/03/01 08:43:45;;;;;;;47.75;29.70;;;;;;;7.13;100.00;102377.72;4900364;29;20044;-75
2021/03/01 08:46:31;;;;;;;42.38;25.42;;;;;;;6.64;100.00;102372.19;4900690;29;20037;-75
2021/03/01 08:49:24;;;;;;;43.15;26.77;;;;;;;6.34;100.00;102380.09;4900367;29;20033;-74
2021/03/01 08:52:13;;;;;;;43.70;27.42;;;;;;;7.10;100.00;102375.03;4900458;29;20035;-75
2021/03/01 08:55:07;;;;;;;43.60;26.67;;;;;;;6.66;100.00;102381.78;4900096;29;20040;-75
2021/03/01 08:58:16;;;;;;;48.45;29.25;;;;;;;7.08;100.00;102380.19;4899607;29;20338;-74
2021/03/01 09:01:07;;;;;;;42.60;26.58;;;;;;;6.97;100.00;102383.41;4899954;29;20048;-74
2021/03/01 09:03:52;;;;;;;39.72;25.40;;;;;;;6.91;100.00;102383.28;4900436;29;20043;-74
2021/03/01 09:06:38;;;;;;;39.28;25.08;;;;;;;7.33;100.00;102390.38;4903943;29;20493;-75
2021/03/01 09:09:24;;;;;;;42.00;26.88;;;;;;;7.51;100.00;102382.94;4918765;29;20032;-75
2021/03/01 09:12:16;;;;;;;39.78;25.88;;;;;;;7.43;100.00;102386.25;4918932;29;20107;-76
2021/03/01 09:15:04;;;;;;;35.95;22.35;;;;;;;6.64;100.00;102388.72;4918727;29;20043;-75
2021/03/01 09:17:52;;;;;;;38.33;24.23;;;;;;;7.30;100.00;102398.09;4918398;29;20074;-75
2021/03/01 09:20:44;;;;;;;39.92;25.08;;;;;;;7.86;100.00;102394.97;4918176;29;20046;-75
2021/03/01 09:23:43;;;;;;;36.80;24.02;;;;;;;8.21;100.00;102393.97;4918516;29;20430;-74
2021/03/01 09:26:32;;;;;;;35.80;22.23;;;;;;;8.57;100.00;102404.19;4905213;29;20075;-75
2021/03/01 09:29:19;;;;;;;33.78;21.27;;;;;;;8.81;100.00;102415.94;4918141;29;20098;-75
2021/03/01 09:32:05;;;;;;;29.25;19.17;;;;;;;8.96;100.00;102413.56;4904616;29;20027;-74
2021/03/01 09:34:51;;;;;;;27.40;18.45;;;;;;;8.61;100.00;102421.69;4918322;29;20369;-74
2021/03/01 09:37:37;;;;;;;29.95;17.10;;;;;;;8.65;100.00;102418.28;4918018;29;20458;-74
2021/03/01 09:40:24;;;;;;;20.75;15.18;;;;;;;9.09;100.00;102422.50;4918124;29;20039;-75
2021/03/01 09:43:11;;;;;;;24.20;15.25;;;;;;;8.53;100.00;102426.75;4904871;29;20043;-74
2021/03/01 09:46:02;;;;;;;26.90;15.63;;;;;;;8.82;100.00;102429.88;4918266;29;20044;-75
2021/03/01 09:48:52;;;;;;;22.05;14.80;;;;;;;8.62;100.00;102437.41;4917724;29;20033;-75
2021/03/01 09:51:38;;;;;;;23.08;14.43;;;;;;;8.64;100.00;102437.44;4917636;29;20091;-75
2021/03/01 09:54:25;;;;;;;24.38;15.95;;;;;;;8.66;100.00;102452.28;4918283;29;20526;-75
2021/03/01 09:57:14;;;;;;;18.45;13.65;;;;;;;8.51;100.00;102452.00;4905136;29;20402;-75
2021/03/01 10:00:18;;;;;;;21.95;15.02;;;;;;;8.88;100.00;102457.00;4918292;29;20028;-75
2021/03/01 10:03:05;;;;;;;20.08;12.95;;;;;;;8.28;100.00;102463.72;4920033;29;20036;-75
2021/03/01 10:05:51;;;;;;;20.42;13.40;;;;;;;7.95;100.00;102472.56;4919732;29;20028;-74
2021/03/01 10:08:38;;;;;;;20.13;13.68;;;;;;;7.77;100.00;102477.41;4880555;29;20091;-74
2021/03/01 10:11:25;;;;;;;20.63;14.13;;;;;;;8.09;100.00;102471.13;4880327;29;20130;-75
2021/03/01 10:14:12;;;;;;;23.63;15.77;;;;;;;8.51;100.00;102472.00;4879862;29;20056;-75
2021/03/01 10:16:58;;;;;;;19.15;13.65;;;;;;;8.84;100.00;102483.94;4879958;29;20450;-74
2021/03/01 10:19:44;;;;;;;25.13;15.10;;;;;;;8.62;100.00;102486.13;4878773;29;20588;-74
2021/03/01 10:22:30;;;;;;;21.70;14.77;;;;;;;8.36;100.00;102480.41;4880003;29;20032;-74
2021/03/01 10:25:27;;;;;;;23.75;15.32;;;;;;;8.53;100.00;102486.84;4879684;29;20029;-75
2021/03/01 10:28:25;;;;;;;21.33;14.18;;;;;;;8.67;100.00;102494.94;4879169;29;20108;-76
2021/03/01 10:31:13;;;;;;;23.38;14.25;;;;;;;8.01;100.00;102504.03;4879736;29;20046;-74
2021/03/01 10:34:02;;;;;;;22.05;14.32;;;;;;;8.47;100.00;102496.28;4879373;29;20021;-74
2021/03/01 10:36:48;;;;;;;26.00;15.50;;;;;;;8.10;100.00;102505.09;4880082;29;20033;-74
2021/03/01 10:39:46;;;;;;;20.70;13.93;;;;;;;8.04;100.00;102514.53;4879818;29;20037;-75
2021/03/01 10:42:37;;;;;;;23.05;14.90;;;;;;;8.56;100.00;102506.94;4880609;29;20033;-74
2021/03/01 10:45:23;;;;;;;25.10;14.98;;;;;;;8.65;100.00;102514.94;4879369;29;20036;-74
2021/03/01 10:48:09;;;;;;;23.30;15.65;;;;;;;8.15;100.00;102518.22;4881600;29;20029;-74
2021/03/01 10:50:55;;;;;;;21.05;14.20;;;;;;;8.24;100.00;102519.34;4883406;29;20530;-75
2021/03/01 10:53:41;;;;;;;22.02;14.85;;;;;;;8.11;100.00;102535.56;4882871;29;20168;-75
2021/03/01 10:56:26;;;;;;;24.10;15.15;;;;;;;8.17;100.00;102529.59;4883517;29;20044;-75
2021/03/01 10:59:12;;;;;;;23.00;16.63;;;;;;;8.43;100.00;102541.50;4883238;29;20033;-74
2021/03/01 11:01:58;;;;;;;29.48;18.52;;;;;;;7.99;100.00;102543.13;4884274;29;20370;-75
2021/03/01 11:04:45;;;;;;;24.15;17.15;;;;;;;8.25;100.00;102538.50;4881875;29;20066;-75
2021/03/01 11:07:31;;;;;;;30.40;17.65;;;;;;;8.07;100.00;102543.28;4906891;29;20119;-74
2021/03/01 11:10:16;;;;;;;27.95;16.65;;;;;;;8.34;100.00;102549.16;4907165;29;20036;-75
2021/03/01 11:13:02;;;;;;;28.98;18.98;;;;;;;8.59;100.00;102554.00;4920432;29;20144;-75
2021/03/01 11:15:48;;;;;;;27.60;17.55;;;;;;;8.41;100.00;102546.69;4907756;29;20064;-73
2021/03/01 11:18:34;;;;;;;29.98;19.00;;;;;;;8.03;100.00;102560.63;4920636;29;20024;-74
2021/03/01 11:21:19;;;;;;;24.85;16.77;;;;;;;8.31;100.00;102562.13;4920535;29;20039;-74
2021/03/01 11:24:07;;;;;;;25.85;15.68;;;;;;;7.99;100.00;102563.13;4906973;29;20365;-75
2021/03/01 11:26:53;;;;;;;22.45;16.42;;;;;;;8.51;100.00;102560.81;4920479;29;20058;-74
2021/03/01 11:29:39;;;;;;;23.55;16.92;;;;;;;8.69;100.00;102563.81;4920394;29;20401;-74
2021/03/01 11:32:28;;;;;;;26.50;16.25;;;;;;;8.56;100.00;102553.97;4906846;29;20083;-75
2021/03/01 11:35:13;;;;;;;24.52;16.17;;;;;;;8.22;100.00;102567.16;4907764;29;20198;-74
2021/03/01 11:37:59;;;;;;;21.50;15.80;;;;;;;8.48;100.00;102564.25;4920630;29;20162;-75
2021/03/01 11:40:45;;;;;;;20.95;14.80;;;;;;;7.89;100.00;102563.78;4920340;29;20032;-74
2021/03/01 11:43:31;;;;;;;19.02;14.75;;;;;;;8.15;100.00;102568.72;4921160;29;20032;-74
2021/03/01 11:46:32;;;;;;;21.60;15.43;;;;;;;8.03;100.00;102571.06;4920662;29;20113;-75
2021/03/01 11:49:18;;;;;;;19.88;15.18;;;;;;;8.34;100.00;102573.53;4921169;29;20056;-73
2021/03/01 11:52:04;;;;;;;21.88;15.75;;;;;;;7.97;100.00;102567.44;4920998;29;20028;-73
2021/03/01 11:54:49;;;;;;;24.17;17.50;;;;;;;7.93;100.00;102568.22;4920109;29;20101;-73
2021/03/01 11:57:35;;;;;;;22.25;16.45;;;;;;;8.13;100.00;102572.16;4906615;29;20652;-74
2021/03/01 12:00:21;;;;;;;23.02;15.88;;;;;;;8.29;100.00;102571.69;4919696;29;20027;-74
2021/03/01 12:03:09;;;;;;;20.35;15.95;;;;;;;8.04;100.00;102569.34;4919633;29;20063;-73
2021/03/01 12:05:55;;;;;;;22.38;16.35;;;;;;;8.22;100.00;102580.22;4919613;29;20035;-74
2021/03/01 12:08:40;;;;;;;21.77;16.33;;;;;;;8.27;100.00;102573.34;4919381;29;20052;-74
2021/03/01 12:11:26;;;;;;;19.67;14.15;;;;;;;7.95;100.00;102577.84;4905314;29;20060;-73
2021/03/01 12:14:12;;;;;;;18.13;13.85;;;;;;;7.83;100.00;102572.34;4919366;29;20032;-73
2021/03/01 12:16:58;;;;;;;19.13;13.60;;;;;;;8.08;100.00;102573.81;4919478;29;20106;-74
2021/03/01 12:19:43;;;;;;;18.92;13.57;;;;;;;8.20;100.00;102572.31;4905897;29;20068;-74
2021/03/01 12:22:29;;;;;;;21.83;13.80;;;;;;;8.38;100.00;102574.47;4919680;29;20032;-74
2021/03/01 12:25:15;;;;;;;20.95;15.77;;;;;;;8.49;100.00;102572.97;4919792;29;20099;-74
2021/03/01 12:28:02;;;;;;;23.10;16.95;;;;;;;8.46;100.00;102579.03;4919519;29;20036;-74
2021/03/01 12:30:48;;;;;;;20.45;14.88;;;;;;;8.38;100.00;102579.69;4919074;29;20027;-73
2021/03/01 12:33:34;;;;;;;25.90;17.80;;;;;;;8.82;100.00;102581.47;4918999;29;20024;-73
2021/03/01 12:36:20;;;;;;;24.23;17.63;;;;;;;8.70;100.00;102589.97;4906494;29;20059;-74
2021/03/01 12:39:06;;;;;;;30.42;21.92;;;;;;;8.16;100.00;102587.91;4918996;29;20028;-73
2021/03/01 12:41:52;;;;;;;28.73;21.00;;;;;;;7.96;100.00;102597.00;4918789;29;20028;-73
2021/03/01 12:44:38;;;;;;;27.15;19.08;;;;;;;7.80;100.00;102593.16;4905546;29;20369;-73